Breckenridge, TX

7:16 PM CDT on September 03, 2015 (GMT -0500)
West Breckenridge | | Change Station
CLOSE
Current Station
Personal Weather Station
Location: Breckenridge, TX
Elevation: 1263 ft
Nearby Weather Stations

Elev 1263 ft 32.75 °N, 98.93 °W | Updated 51 seconds ago

Haze
Haze
90.4 °F
Feels Like 91 °F
N
3.7
Wind Variable Wind from SSE
Gusts 10.0 mph

Today
High -- | Low -- °F
--% Chance of Precip.
Yesterday
High -- | Low -- °F
Precip. -- in
7:11 AM 7:58 PM
Waning Gibbous, 65% visible
Pressure 29.86 in
Visibility 5.0 miles
Clouds Clear
Heat Index 91 °F
Dew Point 61 °F
Humidity 38%
Rainfall 0.00 in
Snow Depth Not available.
UV 1 out of 12
Pollen 9.30 out of 12
Air Quality Not available.
Flu Activity Not available.
METAR KBKD 032355Z AUTO 16007KT 5SM HZ CLR 34/14 A2986 RMK AO2 T03360142 10359 20330
Pressure 29.86 in
Visibility 5.0 miles
Clouds Clear
Heat Index 91 °F
Dew Point 61 °F
Humidity 38%
Rainfall 0.00 in
Snow Depth Not available.
UV 1 out of 12
Pollen 9.30 out of 12
Air Quality Not available.
Flu Activity Not available.
METAR KBKD 032355Z AUTO 16007KT 5SM HZ CLR 34/14 A2986 RMK AO2 T03360142 10359 20330
Nowcast | as of 5:55 PM CDT on September 3, 2015

Isolated showers will continue over the next one to two hours mainly for areas along and southeast of a Killeen to Waco to Canton line. A few rumbles of thunder will also be possible. The main hazards with thunderstorms...should they develop...will be gusty winds and occasional cloud to ground lightning. Rain amounts should remain light with totals generally under one quarter of an inch. Otherwise...hot conditions will continue over the next several hours with temperatures in the low to mid 90s.

×

10-Day Weather Forecast

×

Almanac

Astronomy

Sep. 03, 2015 Rise Set
Actual Time
Civil Twilight
Nautical Twilight
Astronomical Twilight
Moon
Length of Visible Light
Length of Day
Tomorrow will be .
, % of the Moon is Illuminated

Today's Extremes

State Highs State Lows

Community

WunderPhotos

Upload Photos

1,852,068 photos uploaded!

WunderBlogs® & News

Nearby

Air Quality

  Air Quality AQ Index Pollutant
Not available.

Snow Depth

Station Depth Elevation

Earthquake Activity

City Distance Mag. Time & Date
Minimum magnitude displayed is 2.5.

Coastal Water Temperatures

Place Temperature

Stations

Nearby Weather Stations

Station Location Temp. Windchill Dew Point Humidity Wind Precip. Elev Updated Type